Time;durP1;ratioP1;P1;durP2;ratioP2;P2;SDS_P1;SDS_P2;PMS_P1;PMS_P2;Temp;Humidity;BMP_temperature;BMP_pressure;BME280_temperature;BME280_humidity;BME280_pressure;Samples;Min_cycle;Max_cycle;Signal;HPM_P1;HPM_P2
2023/09/12 00:01:22;;;;;;;14.68;11.50;;;;;;;24.10;52.66;93240.75;4717360;30;20049;-95
2023/09/12 00:04:45;;;;;;;14.38;10.85;;;;;;;24.09;52.84;93244.78;4744368;30;20059;-94
2023/09/12 00:07:49;;;;;;;13.55;10.98;;;;;;;24.09;52.52;93238.53;4723103;29;20060;-95
2023/09/12 00:10:45;;;;;;;13.35;11.13;;;;;;;24.07;52.73;93238.34;4707550;30;20730;-95
2023/09/12 00:14:07;;;;;;;;;;;;;;;;;;;;;
2023/09/12 00:17:16;;;;;;;14.63;10.80;;;;;;;24.08;52.63;93240.56;4677563;30;20173;-94
2023/09/12 00:20:37;;;;;;;;;;;;;;;;;;;;;
2023/09/12 00:23:52;;;;;;;12.25;9.80;;;;;;;24.08;52.55;93239.81;4684893;30;20346;-94
2023/09/12 00:26:55;;;;;;;;;;;;;;;;;;;;;
2023/09/12 00:29:58;;;;;;;14.35;11.13;;;;;;;24.08;52.73;93237.06;4702020;30;20136;-95
2023/09/12 00:33:15;;;;;;;;;;;;;;;;;;;;;
2023/09/12 00:36:15;;;;;;;16.00;10.48;;;;;;;24.07;52.59;93224.53;4749714;29;20481;-96
2023/09/12 00:39:04;;;;;;;13.30;10.23;;;;;;;24.05;52.60;93236.13;4727499;29;20055;-95
2023/09/12 00:42:09;;;;;;;;;;;;;;;;;;;;;
2023/09/12 00:45:30;;;;;;;12.10;10.10;;;;;;;24.05;52.59;93230.59;4677867;30;20117;-94
2023/09/12 00:48:24;;;;;;;13.00;9.63;;;;;;;24.05;52.59;93236.13;4672985;30;20054;-95
2023/09/12 00:51:13;;;;;;;15.20;10.00;;;;;;;24.04;52.53;93234.66;4683752;30;20154;-95
2023/09/12 00:54:22;;;;;;;12.30;10.55;;;;;;;24.05;52.63;93230.59;4639060;30;20054;-94
2023/09/12 00:57:44;;;;;;;12.93;10.55;;;;;;;24.05;52.72;93240.91;4647356;30;20129;-94
2023/09/12 01:01:20;;;;;;;;;;;;;;;;;;;;;
2023/09/12 01:04:37;;;;;;;;;;;;;;;;;;;;;
2023/09/12 01:07:53;;;;;;;14.27;10.55;;;;;;;24.03;52.62;93233.22;4657498;30;20378;-95
2023/09/12 01:10:40;;;;;;;12.82;10.32;;;;;;;24.04;52.64;93231.91;4613993;30;20507;-95
2023/09/12 01:14:09;;;;;;;13.55;10.32;;;;;;;24.03;52.82;93235.97;4606850;30;20059;-95
2023/09/12 01:17:16;;;;;;;12.63;10.45;;;;;;;24.03;52.66;93233.22;4586424;30;20528;-94
2023/09/12 01:20:56;;;;;;;;;;;;;;;;;;;;;
2023/09/12 01:24:06;;;;;;;11.27;9.80;;;;;;;24.01;52.44;93238.53;4550694;31;20132;-95
2023/09/12 01:27:18;;;;;;;13.55;9.27;;;;;;;24.01;52.54;93227.50;4586705;31;20104;-96
2023/09/12 01:30:21;;;;;;;11.80;9.90;;;;;;;24.00;52.56;93228.78;4608094;30;20060;-95
2023/09/12 01:33:18;;;;;;;10.52;8.95;;;;;;;24.00;52.42;93219.78;4630915;30;20051;-96
2023/09/12 01:36:23;;;;;;;12.55;10.40;;;;;;;24.00;52.58;93231.56;4611692;30;20066;-96
2023/09/12 01:39:38;;;;;;;11.27;9.80;;;;;;;23.99;52.33;93221.78;4623021;30;20066;-94
2023/09/12 01:42:31;;;;;;;12.85;9.65;;;;;;;24.00;52.52;93226.03;4624110;30;20051;-94
2023/09/12 01:48:52;;;;;;;;;;;;;;;;;;;;;
2023/09/12 01:51:55;;;;;;;12.05;9.20;;;;;;;24.00;52.66;93230.81;4615661;30;20146;-94
2023/09/12 01:54:41;;;;;;;;;;;;;;;;;;;;;
2023/09/12 01:57:54;;;;;;;10.38;8.52;;;;;;;23.98;52.36;93230.63;4649163;30;20145;-95
2023/09/12 02:03:19;;;;;;;11.75;8.82;;;;;;;23.98;52.15;93227.88;5281097;23;20056;-94
2023/09/12 02:06:14;;;;;;;9.70;8.50;;;;;;;23.98;52.41;93225.84;4823866;29;20065;-94
2023/09/12 02:09:01;;;;;;;10.93;9.60;;;;;;;23.99;52.46;93227.31;4882825;29;20547;-94
2023/09/12 02:14:57;;;;;;;11.55;9.07;;;;;;;23.98;52.45;93225.09;4782460;29;20050;-95
2023/09/12 02:18:14;;;;;;;12.10;9.65;;;;;;;23.97;52.51;93221.59;4743201;29;20046;-94
2023/09/12 02:22:08;;;;;;;12.57;9.00;;;;;;;23.97;52.41;93221.59;4805600;29;20046;-95
2023/09/12 02:25:02;;;;;;;;;;;;;;;;;;;;;
2023/09/12 02:28:08;;;;;;;11.20;9.18;;;;;;;23.97;52.38;93226.38;4763368;29;20116;-95
2023/09/12 02:31:22;;;;;;;9.77;8.77;;;;;;;23.96;52.55;93228.41;4716806;30;20697;-95
2023/09/12 02:34:42;;;;;;;10.95;9.55;;;;;;;23.95;52.31;93231.72;4652896;30;20050;-95
2023/09/12 02:37:51;;;;;;;;;;;;;;;;;;;;;
2023/09/12 02:40:52;;;;;;;11.88;9.45;;;;;;;23.95;52.62;93217.91;4638944;30;20114;-95
2023/09/12 02:43:34;;;;;;;10.55;9.43;;;;;;;23.96;52.30;93230.44;4652967;30;20050;-95
2023/09/12 02:47:03;;;;;;;;;;;;;;;;;;;;;
2023/09/12 02:50:12;;;;;;;;;;;;;;;;;;;;;
2023/09/12 02:52:56;;;;;;;11.43;9.23;;;;;;;23.92;52.38;93223.25;4585434;30;20252;-95
2023/09/12 02:55:54;;;;;;;12.70;9.45;;;;;;;23.92;52.25;93214.22;4618808;30;20050;-95
2023/09/12 02:59:00;;;;;;;9.90;8.75;;;;;;;23.93;52.49;93219.22;4654313;30;20300;-95
2023/09/12 03:02:05;;;;;;;;;;;;;;;;;;;;;
2023/09/12 03:11:19;;;;;;;12.68;9.90;;;;;;;23.92;52.21;93217.00;5384951;23;20019;31
2023/09/12 03:14:43;;;;;;;11.98;8.95;;;;;;;23.90;52.27;93209.25;4826903;29;20141;-95
2023/09/12 03:18:12;;;;;;;;;;;;;;;;;;;;;
2023/09/12 03:21:08;;;;;;;9.88;8.75;;;;;;;23.91;52.29;93204.47;4729578;29;20139;-95
2023/09/12 03:24:07;;;;;;;;;;;;;;;;;;;;;
2023/09/12 03:26:57;;;;;;;11.43;8.57;;;;;;;23.90;52.31;93203.00;4785352;29;20821;-95
2023/09/12 03:29:58;;;;;;;13.18;9.38;;;;;;;23.91;51.94;93199.69;4772896;29;20081;-93
2023/09/12 03:32:27;;;;;;;15.70;8.18;;;;;;;23.89;50.00;93205.03;4751575;30;20512;-95
2023/09/12 03:34:52;;;;;;;19.20;14.77;;;;;;;23.82;49.02;93203.00;4783408;29;20062;-93
2023/09/12 03:37:29;;;;;;;27.10;22.70;;;;;;;23.69;49.51;93205.94;4772277;30;20040;-93
2023/09/12 03:40:24;;;;;;;118.55;80.82;;;;;;;23.53;49.37;93201.69;4757887;30;20111;-94
2023/09/12 03:42:50;;;;;;;38.80;22.90;;;;;;;23.49;49.30;93198.53;4716688;30;20049;-93
2023/09/12 03:45:16;;;;;;;40.72;26.60;;;;;;;23.31;49.40;93211.38;4686381;30;20057;-90
2023/09/12 03:54:06;;;;;;;30.48;19.38;;;;;;;22.85;49.71;93205.69;4879423;29;20037;-94
2023/09/12 03:56:47;;;;;;;21.25;11.13;;;;;;;22.72;50.30;93211.31;4816324;29;20050;-94
2023/09/12 03:59:14;;;;;;;20.88;13.05;;;;;;;22.58;50.43;93212.69;4832497;29;20049;-94
2023/09/12 04:01:39;;;;;;;54.72;18.20;;;;;;;22.54;50.46;93221.31;4843886;29;20033;-93
2023/09/12 04:04:32;;;;;;;32.17;15.45;;;;;;;22.43;50.50;93210.59;4845652;29;20059;-93
2023/09/12 04:07:19;;;;;;;26.90;14.13;;;;;;;22.32;50.97;93219.16;4881290;29;20100;-92
2023/09/12 04:09:48;;;;;;;33.22;16.17;;;;;;;22.31;51.01;93222.44;4853859;29;20493;-92
2023/09/12 04:15:43;;;;;;;38.40;17.58;;;;;;;22.16;51.26;93220.34;4950301;23;20144;-93
2023/09/12 04:18:15;;;;;;;46.55;30.77;;;;;;;22.05;51.32;93220.63;4840289;29;20101;-92
2023/09/12 04:20:48;;;;;;;42.38;16.50;;;;;;;21.94;51.78;93220.88;4814566;29;20064;-94
2023/09/12 04:26:03;;;;;;;45.28;24.00;;;;;;;21.87;52.38;93220.28;4827039;27;20046;-94
2023/09/12 04:29:00;;;;;;;47.63;29.67;;;;;;;21.80;52.06;93225.72;4769957;29;20174;-94
2023/09/12 04:31:26;;;;;;;34.78;20.02;;;;;;;21.74;52.36;93216.88;4831160;29;20038;-94
2023/09/12 04:33:54;;;;;;;42.42;25.38;;;;;;;21.67;52.54;93228.53;4810636;29;20065;-93
2023/09/12 04:36:23;;;;;;;48.45;27.60;;;;;;;21.67;52.40;93226.53;4819807;29;20089;-93
2023/09/12 04:38:50;;;;;;;53.45;28.67;;;;;;;21.63;52.29;93222.66;4835634;29;20042;-89
2023/09/12 04:41:16;;;;;;;43.03;27.13;;;;;;;21.64;52.38;93224.13;4812063;29;20053;-94
2023/09/12 04:43:49;;;;;;;50.85;27.05;;;;;;;21.60;52.31;93216.22;4819459;29;20229;-94
2023/09/12 04:46:16;;;;;;;65.75;35.63;;;;;;;21.57;52.11;93228.28;4794235;29;20056;-93
2023/09/12 04:48:42;;;;;;;58.70;33.08;;;;;;;21.58;52.67;93216.00;4820156;29;20065;-93
2023/09/12 04:51:13;;;;;;;45.08;25.63;;;;;;;21.48;53.48;93225.97;4827567;29;20052;-92
2023/09/12 04:53:40;;;;;;;45.95;28.73;;;;;;;21.44;53.40;93233.81;4809678;29;20101;-92
2023/09/12 04:56:09;;;;;;;29.95;19.17;;;;;;;21.45;53.20;93221.53;4802446;29;20097;-92
2023/09/12 04:58:36;;;;;;;39.25;21.90;;;;;;;21.35;53.22;93228.78;4812490;29;20058;-93
2023/09/12 05:01:02;;;;;;;27.88;18.02;;;;;;;21.36;53.17;93230.28;4814394;29;20076;-93
2023/09/12 05:03:29;;;;;;;39.72;21.88;;;;;;;21.40;53.00;93220.41;5213426;23;20939;-93
2023/09/12 05:05:54;;;;;;;21.40;15.45;;;;;;;21.45;53.22;93227.03;4857723;23;20049;-93
2023/09/12 05:08:35;;;;;;;35.80;18.98;;;;;;;21.57;52.79;93222.03;4819158;29;20042;-93
2023/09/12 05:11:03;;;;;;;;;;;;;;;21.69;52.81;93231.50;4828868;29;20038;-93
2023/09/12 05:13:29;;;;;;;42.65;24.92;;;;;;;21.72;52.37;93233.91;4810969;29;20516;-95
2023/09/12 05:16:42;;;;;;;41.03;26.25;;;;;;;21.80;52.30;93229.22;4788717;29;20047;-94
2023/09/12 05:19:08;;;;;;;51.15;30.58;;;;;;;21.91;52.15;93230.94;4810817;29;20085;-92
2023/09/12 05:21:33;;;;;;;61.38;35.38;;;;;;;21.95;52.29;93223.09;4792249;29;20126;-94
2023/09/12 05:23:59;;;;;;;60.65;34.92;;;;;;;22.02;52.18;93230.72;4776929;29;20457;-93
2023/09/12 05:26:25;;;;;;;56.95;35.47;;;;;;;22.08;51.79;93241.59;4780762;29;20038;-95
2023/09/12 05:28:50;;;;;;;64.88;38.40;;;;;;;22.19;52.08;93249.56;4792004;29;20045;-93
2023/09/12 05:31:20;;;;;;;98.55;52.65;;;;;;;22.07;52.59;93243.59;4806643;29;20198;-92
2023/09/12 05:33:46;;;;;;;97.65;59.95;;;;;;;22.01;52.91;93237.50;4765921;29;20434;-92
2023/09/12 05:36:11;;;;;;;67.28;39.33;;;;;;;21.96;53.01;93226.59;4791390;29;20045;-90
2023/09/12 05:38:39;;;;;;;46.75;27.65;;;;;;;21.76;53.52;93237.06;4809928;29;20157;-91
2023/09/12 05:41:04;;;;;;;40.78;21.75;;;;;;;21.80;53.77;93229.22;4792877;29;20137;-91
2023/09/12 05:43:30;;;;;;;35.50;18.52;;;;;;;21.65;54.26;93231.09;4777566;29;20049;-89
2023/09/12 05:45:57;;;;;;;38.03;15.80;;;;;;;21.67;54.33;93229.28;4798607;29;20717;-92
2023/09/12 05:48:43;;;;;;;34.15;17.38;;;;;;;21.66;54.58;93230.53;4777697;29;20396;-94
2023/09/12 05:51:18;;;;;;;36.55;19.65;;;;;;;21.67;55.06;93239.53;4822635;29;20100;-93
2023/09/12 05:53:47;;;;;;;41.00;21.85;;;;;;;21.66;55.47;93249.81;4805103;29;20136;-92
2023/09/12 05:56:20;;;;;;;36.13;21.75;;;;;;;21.72;55.22;93249.69;4794265;29;20457;-92
2023/09/12 05:58:46;;;;;;;40.53;24.75;;;;;;;21.60;55.49;93249.22;4802194;29;20130;-91
2023/09/12 06:01:12;;;;;;;53.45;31.58;;;;;;;21.64;55.71;93254.38;4812449;29;20743;-92
2023/09/12 06:03:38;;;;;;;55.88;26.20;;;;;;;21.71;55.98;93254.44;4795275;29;20620;-89
2023/09/12 06:06:04;;;;;;;42.42;22.23;;;;;;;21.80;55.75;93247.75;4809847;29;20124;-89
2023/09/12 06:08:30;;;;;;;36.53;22.60;;;;;;;21.84;55.73;93250.91;4825036;29;20125;-91
2023/09/12 06:10:56;;;;;;;54.58;27.83;;;;;;;21.81;55.35;93251.97;4814316;29;20045;-90
2023/09/12 06:13:21;;;;;;;51.28;29.05;;;;;;;21.86;55.07;93251.84;4827719;29;20041;-92
2023/09/12 06:15:47;;;;;;;66.93;39.38;;;;;;;21.92;55.19;93250.94;4812109;29;20049;-90
2023/09/12 06:18:13;;;;;;;48.75;30.88;;;;;;;22.02;54.94;93249.97;4812229;29;20120;-91
2023/09/12 06:20:38;;;;;;;47.20;33.03;;;;;;;22.07;54.75;93251.88;4809954;29;20050;-90
2023/09/12 06:23:05;;;;;;;92.85;46.25;;;;;;;22.17;54.39;93243.84;4826001;29;20049;-93
2023/09/12 06:25:30;;;;;;;47.70;31.67;;;;;;;22.24;54.50;93256.94;4812292;29;20120;-92
2023/09/12 06:27:57;;;;;;;45.92;30.17;;;;;;;22.30;54.35;93256.81;4824899;29;20041;-90
2023/09/12 06:30:23;;;;;;;48.80;28.90;;;;;;;22.31;54.51;93253.47;4819237;29;20054;-91
2023/09/12 06:32:49;;;;;;;57.08;32.13;;;;;;;22.38;54.21;93254.81;4764645;29;20058;-94
2023/09/12 06:35:37;;;;;;;;;;;;;;;;;;;;;
2023/09/12 06:38:04;;;;;;;52.72;32.80;;;;;;;22.48;54.02;93237.28;4771862;29;20046;-92
2023/09/12 06:40:32;;;;;;;74.65;40.35;;;;;;;22.55;53.91;93250.34;4802566;29;20142;-91
2023/09/12 06:43:10;;;;;;;106.22;61.22;;;;;;;22.60;53.84;93251.47;4760836;30;20075;-94
2023/09/12 06:45:38;;;;;;;96.68;56.97;;;;;;;22.66;53.78;93241.03;4766174;29;20142;-91
2023/09/12 06:48:04;;;;;;;166.57;102.45;;;;;;;22.71;54.05;93247.69;4761226;29;20051;-89
2023/09/12 06:50:29;;;;;;;171.10;101.50;;;;;;;22.76;53.66;93242.00;4798703;29;20054;-91
2023/09/12 06:52:55;;;;;;;196.02;115.00;;;;;;;22.81;53.80;93252.16;4778166;29;20580;-90
2023/09/12 06:55:20;;;;;;;209.18;120.18;;;;;;;22.86;53.92;93247.78;4792312;29;20095;-93
2023/09/12 06:57:46;;;;;;;213.00;121.45;;;;;;;22.83;54.31;93243.34;4777472;29;20181;-93
2023/09/12 07:00:16;;;;;;;226.38;124.93;;;;;;;22.90;54.12;93248.91;4780353;29;20046;-92
2023/09/12 07:02:51;;;;;;;211.30;123.70;;;;;;;22.92;53.91;93242.13;4767711;29;20089;-94
2023/09/12 07:05:17;;;;;;;198.38;119.88;;;;;;;22.94;54.19;93250.59;4766819;29;20481;-93
2023/09/12 07:07:42;;;;;;;143.38;93.05;;;;;;;22.98;54.87;93240.66;4787156;29;20105;-92
2023/09/12 07:10:11;;;;;;;76.47;46.90;;;;;;;23.02;55.52;93249.31;4800598;29;20058;-93
2023/09/12 07:12:39;;;;;;;69.68;38.80;;;;;;;23.04;56.16;93249.50;4767811;30;20521;-90
2023/09/12 07:15:09;;;;;;;52.45;31.60;;;;;;;23.00;56.72;93251.88;4809679;29;20593;-93
2023/09/12 07:17:34;;;;;;;47.83;28.55;;;;;;;23.05;56.92;93253.75;4816933;29;20564;-92
2023/09/12 07:20:00;;;;;;;85.45;40.42;;;;;;;23.01;57.07;93256.13;4826585;29;20054;-92
2023/09/12 07:22:29;;;;;;;107.15;64.47;;;;;;;23.00;57.17;93259.41;4812941;29;20065;-93
2023/09/12 07:25:09;;;;;;;111.97;47.28;;;;;;;23.01;57.54;93255.38;4820639;29;20118;-92
2023/09/12 07:27:36;;;;;;;85.03;41.63;;;;;;;23.04;57.69;93257.06;4838197;29;20037;-94
2023/09/12 07:30:02;;;;;;;89.63;46.38;;;;;;;23.01;57.63;93252.63;4815508;29;20081;-94
2023/09/12 07:32:30;;;;;;;119.30;58.83;;;;;;;22.96;57.72;93253.50;4797327;29;20068;-92
2023/09/12 07:35:33;;;;;;;132.23;70.97;;;;;;;23.03;57.31;93247.31;4826719;29;20132;-92
2023/09/12 07:38:24;;;;;;;131.48;75.28;;;;;;;23.06;57.77;93260.75;4841749;29;20085;-92
2023/09/12 07:41:03;;;;;;;119.00;69.32;;;;;;;23.05;57.82;93253.00;4833841;29;20644;-93
2023/09/12 07:44:04;;;;;;;126.60;73.75;;;;;;;23.10;57.34;93252.84;4803787;29;20049;-92
2023/09/12 07:46:32;;;;;;;146.95;83.25;;;;;;;23.11;57.70;93259.09;4827683;29;20041;-94
2023/09/12 07:49:09;;;;;;;149.30;82.15;;;;;;;23.15;57.19;93263.00;4826826;29;20049;-94
2023/09/12 07:51:34;;;;;;;152.80;80.00;;;;;;;23.27;57.35;93257.13;4817455;29;20045;-91
2023/09/12 07:54:03;;;;;;;159.25;82.05;;;;;;;23.24;57.40;93265.22;4812123;29;20137;-92
2023/09/12 07:56:29;;;;;;;161.60;80.53;;;;;;;23.30;57.15;93264.31;4831654;29;20113;-93
2023/09/12 07:58:56;;;;;;;139.55;71.97;;;;;;;23.33;57.26;93268.75;4814200;29;20049;-91
2023/09/12 08:01:34;;;;;;;141.40;68.85;;;;;;;23.36;57.34;93268.41;4807983;29;20882;-92
2023/09/12 08:04:31;;;;;;;117.90;64.25;;;;;;;23.42;56.97;93263.44;4829318;24;20055;-92
2023/09/12 08:07:08;;;;;;;127.50;65.63;;;;;;;23.43;56.41;93272.44;4744123;30;20052;-93
2023/09/12 08:09:54;;;;;;;134.40;70.80;;;;;;;23.45;55.41;93267.84;4708552;30;20068;-93
2023/09/12 08:12:21;;;;;;;145.75;90.32;;;;;;;23.51;54.53;93265.69;4835567;23;20058;-94
2023/09/12 08:14:53;;;;;;;169.15;97.78;;;;;;;23.49;54.30;93268.25;4836775;29;20060;-94
2023/09/12 08:17:19;;;;;;;164.30;100.72;;;;;;;23.50;53.82;93274.50;4851300;29;20049;-92
2023/09/12 08:23:13;;;;;;;215.00;134.02;;;;;;;23.56;53.72;93275.84;4997239;23;20045;-94
2023/09/12 08:28:33;;;;;;;248.02;148.20;;;;;;;23.59;53.26;93282.28;5072453;23;20065;-95
2023/09/12 08:31:13;;;;;;;407.95;155.57;;;;;;;23.58;53.91;93276.03;4853774;29;20045;-93
2023/09/12 08:33:39;;;;;;;271.33;143.93;;;;;;;23.60;53.72;93274.75;4856412;29;20040;-93
2023/09/12 08:36:16;;;;;;;189.40;107.53;;;;;;;23.59;52.23;93276.78;4847532;29;20044;-93
2023/09/12 08:38:42;;;;;;;179.05;93.85;;;;;;;23.64;51.95;93275.09;4836727;29;20052;-93
2023/09/12 08:41:07;;;;;;;152.48;71.47;;;;;;;23.62;51.44;93281.16;4833932;29;20052;-90
2023/09/12 08:43:33;;;;;;;129.73;63.38;;;;;;;23.63;51.42;93277.13;4833091;29;20729;-91
2023/09/12 08:46:04;;;;;;;89.70;46.38;;;;;;;23.69;51.57;93274.94;4840704;29;20137;-91
2023/09/12 08:48:32;;;;;;;86.00;49.67;;;;;;;23.65;51.14;93274.56;4853692;29;20045;-92
2023/09/12 08:51:08;;;;;;;88.78;49.15;;;;;;;23.62;51.73;93277.66;4866439;29;20441;-90
2023/09/12 08:53:35;;;;;;;95.57;55.25;;;;;;;23.63;51.36;93277.13;4847279;29;20049;-92
2023/09/12 08:56:03;;;;;;;103.22;61.13;;;;;;;23.62;51.28;93280.44;4885238;29;20184;-91
2023/09/12 08:58:31;;;;;;;109.72;66.20;;;;;;;23.62;50.79;93277.66;4837228;24;20577;-93
2023/09/12 09:01:03;;;;;;;110.82;64.40;;;;;;;23.63;50.45;93265.34;4867361;23;20044;-93
2023/09/12 09:03:28;;;;;;;99.53;58.45;;;;;;;23.64;50.53;93269.59;4898296;23;20078;-93
2023/09/12 09:05:56;;;;;;;80.35;43.17;;;;;;;23.68;49.69;93273.47;4865787;29;20082;-92
2023/09/12 09:08:22;;;;;;;102.07;48.45;;;;;;;23.67;49.98;93274.00;4827724;29;20056;-92
2023/09/12 09:11:10;;;;;;;76.30;40.05;;;;;;;23.61;50.05;93274.16;4841714;29;20041;-92
2023/09/12 09:13:39;;;;;;;90.43;45.63;;;;;;;23.60;50.36;93258.91;4851497;29;20044;-93
2023/09/12 09:16:21;;;;;;;68.50;38.25;;;;;;;23.67;50.04;93268.50;4860746;29;20029;-93
2023/09/12 09:18:59;;;;;;;69.78;41.35;;;;;;;23.66;49.90;93261.50;4848995;29;20041;-92
2023/09/12 09:21:30;;;;;;;54.35;31.75;;;;;;;23.68;50.16;93264.44;4864908;29;20044;-91
2023/09/12 09:23:57;;;;;;;;;;;;;;;23.67;50.17;93269.22;4859341;29;20048;-92
2023/09/12 09:26:25;;;;;;;68.68;43.17;;;;;;;23.73;49.81;93260.78;4878051;29;19938;-92
2023/09/12 09:29:08;;;;;;;79.60;49.13;;;;;;;23.64;49.84;93275.84;4854013;23;20214;-91
2023/09/12 09:34:19;;;;;;;68.50;42.72;;;;;;;23.71;50.39;93266.09;4944277;23;20070;-94
2023/09/12 09:36:56;;;;;;;60.90;40.25;;;;;;;23.68;50.95;93270.69;4838902;29;20049;-93
2023/09/12 09:39:25;;;;;;;43.50;29.35;;;;;;;23.72;51.43;93253.78;4860738;29;20054;-94
2023/09/12 09:41:53;;;;;;;50.15;31.75;;;;;;;23.76;50.87;93263.19;4830078;29;20057;-93
2023/09/12 09:44:20;;;;;;;51.50;31.85;;;;;;;23.73;51.36;93260.78;4838340;29;20045;-92
2023/09/12 09:46:55;;;;;;;43.42;30.17;;;;;;;23.75;51.75;93260.97;4855025;29;20041;-94
2023/09/12 09:49:22;;;;;;;40.05;31.08;;;;;;;23.70;52.07;93256.34;4828133;29;20417;-93
2023/09/12 09:51:48;;;;;;;73.90;49.50;;;;;;;23.81;51.90;93253.25;4820758;29;20045;-92
2023/09/12 09:54:22;;;;;;;77.85;47.70;;;;;;;23.75;52.43;93258.22;4827587;29;20037;-94
2023/09/12 09:56:50;;;;;;;91.43;59.33;;;;;;;23.83;51.61;93250.66;4827549;29;20052;-93
2023/09/12 09:59:20;;;;;;;85.95;57.50;;;;;;;23.77;51.67;93258.41;4789097;29;20553;-94
2023/09/12 10:01:53;;;;;;;74.07;49.20;;;;;;;23.83;51.77;93256.91;4790032;29;20036;-95
2023/09/12 10:04:28;;;;;;;80.13;51.97;;;;;;;23.78;51.98;93251.59;4748349;30;20303;-95
2023/09/12 10:07:09;;;;;;;77.15;44.30;;;;;;;23.76;52.04;93257.66;4736562;30;20048;-94
2023/09/12 10:09:55;;;;;;;54.83;35.20;;;;;;;23.83;52.11;93262.44;4715806;30;20060;-94
2023/09/12 10:12:55;;;;;;;46.83;32.03;;;;;;;23.87;52.03;93260.06;4744963;29;20044;-94
2023/09/12 10:15:25;;;;;;;50.08;35.00;;;;;;;23.86;52.10;93255.81;4757627;30;20043;-94
2023/09/12 10:18:08;;;;;;;45.00;31.07;;;;;;;23.81;52.03;93258.78;4730782;30;20161;-94
2023/09/12 10:20:57;;;;;;;44.65;31.02;;;;;;;23.84;52.20;93252.13;4745768;30;20048;-94
2023/09/12 10:23:53;;;;;;;35.85;25.60;;;;;;;23.78;52.17;93252.34;4734645;30;20075;-94
2023/09/12 10:27:36;;;;;;;25.52;19.55;;;;;;;23.79;52.47;93250.31;4715265;30;20028;-94
2023/09/12 10:30:31;;;;;;;21.85;18.08;;;;;;;23.82;52.34;93257.47;4674664;30;20053;-96
2023/09/12 10:33:17;;;;;;;25.20;16.92;;;;;;;23.84;52.22;93247.34;4737806;30;20063;-94
2023/09/12 10:35:54;;;;;;;20.90;17.35;;;;;;;23.77;52.24;93242.56;4728968;30;20068;-94
2023/09/12 10:42:02;;;;;;;19.38;13.32;;;;;;;23.89;52.60;93249.19;4978317;24;20071;-94
2023/09/12 10:46:12;;;;;;;;;;;;;;;;;;;;;
2023/09/12 10:48:40;;;;;;;14.10;12.30;;;;;;;23.87;52.39;93248.28;5111400;23;20024;-94
2023/09/12 10:51:20;;;;;;;;;;;;;;;;;;;;;
2023/09/12 10:53:48;;;;;;;21.02;10.73;;;;;;;23.95;52.28;93246.25;4862287;23;20137;-94
2023/09/12 10:56:33;;;;;;;11.77;10.30;;;;;;;23.98;52.18;93239.66;4801218;29;20045;-95
2023/09/12 10:59:27;;;;;;;22.35;13.50;;;;;;;23.95;52.20;93251.06;4790551;29;20088;-95
2023/09/12 11:01:55;;;;;;;40.38;23.98;;;;;;;23.93;52.19;93257.13;4821111;23;20129;-95
2023/09/12 11:04:30;;;;;;;54.15;30.58;;;;;;;23.95;52.38;93262.84;4838451;29;20063;-94
2023/09/12 11:07:03;;;;;;;66.53;36.90;;;;;;;23.97;52.16;93249.22;4895970;29;20064;-95
2023/09/12 11:09:36;;;;;;;59.20;35.33;;;;;;;23.98;52.10;93253.44;4877519;29;20052;-95
2023/09/12 11:12:06;;;;;;;100.75;54.67;;;;;;;24.03;52.00;93258.06;4844527;29;20085;-94
2023/09/12 11:14:37;;;;;;;125.85;65.15;;;;;;;24.05;52.00;93258.22;4842038;23;20076;-94
2023/09/12 11:17:08;;;;;;;129.88;65.93;;;;;;;24.11;52.32;93258.03;4827583;29;20068;-95
2023/09/12 11:19:49;;;;;;;136.95;76.47;;;;;;;24.09;52.48;93249.56;4882684;29;20041;-94
2023/09/12 11:22:34;;;;;;;166.85;96.28;;;;;;;24.08;52.71;93253.63;4832998;29;20049;-94
2023/09/12 11:25:05;;;;;;;176.65;97.50;;;;;;;24.14;52.73;93238.34;4859029;29;20399;-93
2023/09/12 11:28:20;;;;;;;150.82;88.47;;;;;;;24.13;52.94;93252.72;4861793;29;20044;-93
2023/09/12 11:31:00;;;;;;;165.55;86.57;;;;;;;24.09;53.08;93252.34;4779000;29;20051;-94
2023/09/12 11:33:29;;;;;;;118.85;63.20;;;;;;;24.14;53.30;93254.19;4810193;29;20047;-94
2023/09/12 11:36:23;;;;;;;117.50;60.35;;;;;;;24.14;53.60;93248.66;4777062;29;20051;-94
2023/09/12 11:39:33;;;;;;;140.90;59.78;;;;;;;24.11;53.64;93247.00;4819689;23;20060;-94
2023/09/12 11:42:02;;;;;;;112.55;54.78;;;;;;;24.15;53.54;93244.63;4869760;29;20070;-94
2023/09/12 11:44:40;;;;;;;104.38;57.72;;;;;;;24.19;53.49;93242.97;4851152;29;20079;-94
2023/09/12 11:47:21;;;;;;;;;;;;;;;;;;;;;
2023/09/12 11:49:49;;;;;;;167.95;97.80;;;;;;;24.22;52.98;93238.34;4861050;29;20127;-93
2023/09/12 11:52:21;;;;;;;132.10;80.82;;;;;;;24.24;52.82;93244.84;4860184;29;20123;-93
2023/09/12 11:54:48;;;;;;;162.18;94.25;;;;;;;24.30;52.72;93235.59;4849431;29;20041;-96
2023/09/12 11:57:19;;;;;;;183.95;107.60;;;;;;;24.24;52.88;93233.78;4840664;29;20142;-94
2023/09/12 12:03:35;;;;;;;134.50;77.45;;;;;;;24.20;52.38;93236.16;4824555;29;20053;-95
2023/09/12 12:09:21;;;;;;;97.93;54.05;;;;;;;24.28;52.32;93233.38;4771634;29;20061;-94
2023/09/12 12:12:13;;;;;;;108.35;56.83;;;;;;;24.21;52.26;93239.66;4781034;29;20137;-96
2023/09/12 12:15:04;;;;;;;110.35;58.38;;;;;;;24.21;52.02;93237.63;4776903;29;20030;-94
2023/09/12 12:17:47;;;;;;;98.90;56.75;;;;;;;24.22;51.65;93232.84;4832129;23;20049;-94
2023/09/12 12:20:38;;;;;;;122.38;69.43;;;;;;;24.26;51.48;93230.44;4803098;29;20037;-93
2023/09/12 12:23:06;;;;;;;93.03;48.85;;;;;;;24.25;51.32;93232.47;4861839;29;20045;-92
2023/09/12 12:25:37;;;;;;;88.80;48.03;;;;;;;24.26;50.83;93228.41;4858770;29;20526;-92
2023/09/12 12:31:09;;;;;;;96.22;39.40;;;;;;;24.38;51.06;93230.81;5270746;23;20441;-94
2023/09/12 12:34:03;;;;;;;;;;;;;;;;;;;;;
2023/09/12 12:36:34;;;;;;;88.70;55.13;;;;;;;24.51;51.73;93227.84;4831161;23;20129;-94
2023/09/12 12:39:02;;;;;;;53.13;27.08;;;;;;;24.48;51.66;93220.66;4840808;29;20082;-94
2023/09/12 12:52:12;;;;;;;22.45;16.55;;;;;;;24.58;49.72;93221.56;4885211;23;20056;-94
2023/09/12 12:54:43;;;;;;;20.50;15.00;;;;;;;24.51;50.21;93222.31;4834890;29;20049;-92
2023/09/12 12:57:19;;;;;;;18.42;14.35;;;;;;;24.54;49.61;93223.97;4835906;29;20057;-95
2023/09/12 12:59:50;;;;;;;73.82;46.42;;;;;;;24.49;49.55;93211.06;4805118;29;20051;-94
2023/09/12 13:05:37;;;;;;;65.30;38.00;;;;;;;24.42;49.87;93215.34;4741075;29;20044;-92
2023/09/12 13:08:07;;;;;;;68.32;35.78;;;;;;;24.45;49.84;93219.03;4774330;30;20539;-90
2023/09/12 13:10:59;;;;;;;58.90;31.20;;;;;;;24.47;49.96;93219.91;4790313;23;20041;-91
2023/09/12 13:16:27;;;;;;;64.35;31.17;;;;;;;24.47;49.95;93213.66;4782109;29;20058;-92
2023/09/12 13:19:11;;;;;;;72.45;34.00;;;;;;;24.44;49.87;93206.50;4777509;29;20133;-92
2023/09/12 13:22:48;;;;;;;78.30;44.22;;;;;;;24.44;49.90;93209.25;4791498;29;20057;-92
2023/09/12 13:25:12;;;;;;;69.28;40.70;;;;;;;24.44;49.61;93201.72;4802231;29;20055;-92
2023/09/12 13:27:38;;;;;;;108.30;43.35;;;;;;;24.49;49.54;93208.31;4749187;30;20055;-91
2023/09/12 13:30:05;;;;;;;157.73;39.20;;;;;;;24.49;49.71;93214.56;4741387;30;20061;-91
2023/09/12 13:32:34;;;;;;;116.20;36.85;;;;;;;24.46;49.75;93196.34;4731721;30;20045;-92
2023/09/12 13:35:04;;;;;;;;;;;;;;;24.46;50.21;93206.69;4713876;30;20048;-94
2023/09/12 13:37:32;;;;;;;73.75;30.50;;;;;;;24.47;50.08;93200.56;4742242;30;20516;-93
2023/09/12 13:40:08;;;;;;;125.65;56.20;;;;;;;24.48;49.90;93195.78;4694172;30;20049;-91
2023/09/12 13:42:35;;;;;;;137.85;53.20;;;;;;;24.49;49.95;93200.75;4711401;30;20049;-91
2023/09/12 13:45:18;;;;;;;150.30;58.83;;;;;;;24.48;50.03;93201.31;4694594;30;20053;-90
2023/09/12 13:47:49;;;;;;;170.20;101.93;;;;;;;24.53;50.63;93195.59;4722715;30;20044;-91
2023/09/12 13:50:15;;;;;;;104.38;49.40;;;;;;;24.52;50.44;93198.91;4714475;30;20052;-92
2023/09/12 13:52:42;;;;;;;117.10;53.97;;;;;;;24.54;50.30;93202.59;4709116;30;20108;-91
2023/09/12 13:55:13;;;;;;;89.90;41.38;;;;;;;24.51;49.64;93195.41;4712620;30;20102;-90
2023/09/12 13:57:39;;;;;;;100.32;52.92;;;;;;;24.56;48.77;93188.94;4718027;30;20047;-94